Flight Track Log - Related Links

Times and Time Zones

All times are in EDT time to prevent confusion due to time zone crossing. See the N770NC flight status page for this flight to view local times or setup timezone preferences in your user account.

Time Position Orientation Groundspeed Altitude Reporting Facility
EDT Latitude Longitude Course Direction KTS MPH feet Rate Location/Type
Sun 08:37:16 AM 33.6500 -84.3667 North 215 247 2,200  Level Atlanta TRACON
Sun 08:38:16 AM 33.6833 -84.2833 64° Northeast 272 313 5,100 2,750 Climbing Atlanta TRACON
Sun 08:39:16 AM 33.7500 -84.2333 32° Northeast 287 330 7,700 2,221 Climbing Atlanta TRACON
Sun 08:40:00 AM 34.0749 -84.3188 12° North  Level FlightAware Approximate
Sun 08:41:00 AM 34.1843 -84.3022 North  Level FlightAware Approximate
Sun 08:41:44 AM 33.9672 -84.2617 354° North 347 399 12,800  Level Atlanta Center
Sun 08:42:00 AM 34.2961 -84.3000 North  Level FlightAware Approximate
Sun 08:42:44 AM 34.0444 -84.2844 346° North 347 399 14,600  Level Atlanta Center
Sun 08:43:44 AM 34.1592 -84.2975 355° North 355 409 16,700 1,900 Climbing Atlanta Center
Sun 08:44:44 AM 34.2614 -84.3028 358° North 370 426 18,400 1,650 Climbing Atlanta Center
Sun 08:45:44 AM 34.3678 -84.3106 357° North 370 426 20,000 1,550 Climbing Atlanta Center
Sun 08:46:44 AM 34.4619 -84.3083 North 370 426 21,500 1,450 Climbing Atlanta Center
Sun 08:47:44 AM 34.5703 -84.3111 359° North 377 434 22,900 1,050 Climbing Atlanta Center
Sun 08:48:44 AM 34.6850 -84.3167 358° North 397 457 23,600 600 Climbing Atlanta Center
Sun 08:49:44 AM 34.8061 -84.3094 North 419 482 24,100 500 Climbing Atlanta Center
Sun 08:50:44 AM 34.9417 -84.3175 357° North 441 507 24,600 700 Climbing Atlanta Center
Sun 08:51:44 AM 35.0733 -84.3281 356° North 446 513 25,500 950 Climbing Atlanta Center
Sun 08:52:44 AM 35.2025 -84.3286 360° North 456 525 26,500 1,100 Climbing Atlanta Center
Sun 08:53:44 AM 35.3342 -84.3264 North 462 532 27,700 1,150 Climbing Atlanta Center
Sun 08:54:44 AM 35.4614 -84.3344 357° North 457 526 28,800 1,100 Climbing Atlanta Center
Sun 08:55:44 AM 35.5864 -84.3375 359° North 457 526 29,900 1,100 Climbing Atlanta Center
Sun 08:56:44 AM 35.7136 -84.3406 359° North 457 526 31,000 633 Climbing Atlanta Center
Sun 08:59:03 AM 36.0072 -84.3622 357° North 456 525 32,000 300 Climbing Indianapolis Center
Sun 09:00:04 AM 36.1322 -84.3608 North 453 521 32,000  Level Indianapolis Center
Sun 09:01:06 AM 36.2564 -84.3686 357° North 448 516 32,000  Level Indianapolis Center
Sun 09:02:07 AM 36.3811 -84.3592 North 449 517 32,000  Level Indianapolis Center
Sun 09:03:09 AM 36.5044 -84.3572 North 446 513 32,000  Level Indianapolis Center
Sun 09:04:10 AM 36.6250 -84.3644 357° North 444 511 32,000  Level Indianapolis Center
Sun 09:05:12 AM 36.7714 -84.3572 North 449 517 32,000  Level Indianapolis Center
Sun 09:06:13 AM 36.8972 -84.3506 North 449 517 32,000  Level Indianapolis Center
Sun 09:07:15 AM 37.0244 -84.3578 357° North 453 521 32,000  Level Indianapolis Center
Sun 09:08:16 AM 37.1533 -84.3592 360° North 461 531 32,000  Level Indianapolis Center
Sun 09:09:18 AM 37.2836 -84.3483 North 465 535 32,000  Level Indianapolis Center
Sun 09:10:19 AM 37.4131 -84.3461 North 464 534 32,000 -195 Level Indianapolis Center
Sun 09:11:21 AM 37.5408 -84.3553 357° North 461 531 31,600 -927 Descending Indianapolis Center
Sun 09:12:22 AM 37.6714 -84.3486 North 463 533 30,100 -1,463 Descending Indianapolis Center
Sun 09:13:24 AM 37.7972 -84.3506 359° North 452 520 28,600 -1,561 Descending Indianapolis Center
Sun 09:14:25 AM 37.9392 -84.3667 355° North 438 504 26,900 -1,463 Descending Indianapolis Center
Sun 09:15:27 AM 38.0567 -84.3889 352° North 429 494 25,600 -1,268 Descending Indianapolis Center
Sun 09:16:28 AM 38.1708 -84.4125 351° North 420 483 24,300 -1,268 Descending Indianapolis Center
Sun 09:17:30 AM 38.2836 -84.4186 358° North 409 471 23,000 -1,268 Descending Indianapolis Center
Sun 09:18:31 AM 38.3947 -84.4075 North 399 459 21,700 -1,317 Descending Indianapolis Center
Sun 09:19:33 AM 38.5044 -84.4058 North 395 455 20,300 -1,220 Descending Indianapolis Center
Sun 09:20:34 AM 38.6097 -84.3978 North 383 441 19,200 -1,268 Descending Indianapolis Center
Sun 09:21:36 AM 38.7167 -84.3886 North 381 438 17,700 -1,258 Descending Indianapolis Center
Sun 09:22:38 AM 38.8219 -84.3897 360° North 375 432 16,600 -1,073 Descending Indianapolis Center
Sun 09:23:39 AM 38.9325 -84.4328 343° North 359 413 15,500 -1,463 Descending Indianapolis Center
Sun 09:24:41 AM 39.0256 -84.4661 344° North 344 396 13,600 -1,742 Descending Indianapolis Center
Sun 09:25:43 AM 39.1147 -84.5100 339° North 340 391 11,900 -780 Descending Indianapolis Center
Sun 09:26:44 AM 39.2086 -84.5356 348° North 350 403 12,000 -98 Climbing Indianapolis Center
Sun 09:27:46 AM 39.2917 -84.4617 35° Northeast 364 419 11,700 -683 Descending Indianapolis Center
Sun 09:28:47 AM 39.3861 -84.3864 32° Northeast 384 442 10,600 -878 Descending Indianapolis Center
Sun 09:29:49 AM 39.4756 -84.3233 29° Northeast 373 429 9,900 -293 Descending Indianapolis Center
Sun 09:30:50 AM 39.5519 -84.2508 36° Northeast 338 389 10,000 60 Climbing Indianapolis Center
Sun 09:31:29 AM 39.6092 -84.1925 38° Northeast 347 399 10,000  Level Indianapolis Center
Sun 09:31:52 AM 39.6283 -84.1706 41° Northeast 347 399 10,000  Level Indianapolis Center
Sun 09:32:30 AM 39.6858 -84.1239 32° Northeast 333 383 10,000 -387 Level Indianapolis Center
Sun 09:32:54 AM 39.7081 -84.1119 22° Northeast 320 368 9,600 -1,636 Descending Indianapolis Center
Sun 09:33:36 AM 39.7750 -84.0839 18° North 296 341 8,200 -1,548 Descending Indianapolis Center
Sun 09:33:56 AM 39.7864 -84.0764 27° Northeast 297 342 8,000 -590 Descending Indianapolis Center
Sun 09:34:37 AM 39.8406 -84.0489 21° North 216 249 7,600 -590 Descending Indianapolis Center
Sun 09:34:57 AM 39.8500 -84.0436 23° Northeast 248 285 7,400 -1,869 Descending Indianapolis Center
Sun 09:35:38 AM 39.8950 -84.0208 21° North 227 261 5,700 -2,226 Descending Indianapolis Center
Sun 09:35:59 AM 39.9133 -84.0036 36° Northeast 233 268 5,100 -1,600 Descending Indianapolis Center
Sun 09:36:38 AM 39.9364 -84.0289 320° Northwest 206 237 4,100 -1,538 Descending Indianapolis Center

Login

Don't have an account? Register now (free) for customized features, flight alerts, and more!